Terminal Aerodrome Forecast
Issued by NWS

Home | Current Version | Previous Version | Graphics & Text | Print | Product List | Glossary On
Versions: 1 2 3 4 5 6 7 8 9 10 11 12 13 14 15 16 17 18 19 20 21
000
FTUS43 KTOP 211100 CCB
TAFMHK
TAF COR
KMHK 211152Z 2112/2212 25011KT P6SM -SHRA VCTS BKN060CB
     FM211400 32010KT P6SM -SHRA VCTS FEW025 BKN040CB
     FM211900 33011G18KT P6SM SCT040=

USA.gov is the U.S. government's official web portal to all federal, state and local government web resources and services.